KIRS/IRS METAR and TAF weather

Enter ICAO airport designator
Station Type Date Time Source
KIRS METAR 2021/05/12 23:55 UTC NOAA

KIRS 122355Z AUTO 04004KT 10SM SCT095 15/M01 A3036 RMK AO2 T01451006 10170 20139


Station Type Date Time Source
KIRS Decoded METAR 2021/05/12 23:55 UTC NOAA

Sturgis, Kirsch Municipal Airport, MI, United States (KIRS) 41-48-46N 085-26-21W
May 12, 2021 - 07:55 PM EDT / 2021.05.12 2355 UTC
Wind: from the NE (040 degrees) at 5 MPH (4 KT):0
Visibility: 10 mile(s):0
Sky conditions: partly cloudy
Temperature: 58.1 F (14.5 C)
Dew Point: 30.9 F (-0.6 C)
Relative Humidity: 35%
Pressure (altimeter): 30.36 in. Hg (1028 hPa)
ob: KIRS 122355Z AUTO 04004KT 10SM SCT095 15/M01 A3036 RMK AO2 T01451006 10170 20139
cycle: 0

Station Type Date Time Source
KIRS TAF UTC NOAA

Error!

Example: see airport list